sensor_id;sensor_type;location;lat;lon;timestamp;P1;durP1;ratioP1;P2;durP2;ratioP2
30707;SDS011;17458;48.958;8.284;2024-02-14T00:01:24;15.13;;;3.67;;
30707;SDS011;17458;48.958;8.284;2024-02-14T00:04:08;8.93;;;3.53;;
30707;SDS011;17458;48.958;8.284;2024-02-14T00:06:52;3.42;;;3.13;;
30707;SDS011;17458;48.958;8.284;2024-02-14T00:09:37;5.63;;;4.03;;
30707;SDS011;17458;48.958;8.284;2024-02-14T00:12:21;10.70;;;4.20;;
30707;SDS011;17458;48.958;8.284;2024-02-14T00:15:05;10.20;;;4.05;;
30707;SDS011;17458;48.958;8.284;2024-02-14T00:17:50;4.80;;;3.33;;
30707;SDS011;17458;48.958;8.284;2024-02-14T00:20:34;5.22;;;3.33;;
30707;SDS011;17458;48.958;8.284;2024-02-14T00:23:19;6.72;;;4.70;;
30707;SDS011;17458;48.958;8.284;2024-02-14T00:26:03;4.85;;;3.50;;
30707;SDS011;17458;48.958;8.284;2024-02-14T00:28:47;5.30;;;3.83;;
30707;SDS011;17458;48.958;8.284;2024-02-14T00:31:31;12.75;;;3.83;;
30707;SDS011;17458;48.958;8.284;2024-02-14T00:34:15;3.80;;;3.38;;
30707;SDS011;17458;48.958;8.284;2024-02-14T00:36:59;6.90;;;3.70;;
30707;SDS011;17458;48.958;8.284;2024-02-14T00:39:43;4.97;;;4.07;;
30707;SDS011;17458;48.958;8.284;2024-02-14T00:42:27;5.97;;;3.33;;
30707;SDS011;17458;48.958;8.284;2024-02-14T00:45:11;5.72;;;4.03;;
30707;SDS011;17458;48.958;8.284;2024-02-14T00:47:55;3.88;;;3.25;;
30707;SDS011;17458;48.958;8.284;2024-02-14T00:50:40;4.60;;;3.42;;
30707;SDS011;17458;48.958;8.284;2024-02-14T00:53:23;4.45;;;3.30;;
30707;SDS011;17458;48.958;8.284;2024-02-14T00:56:07;5.68;;;3.78;;
30707;SDS011;17458;48.958;8.284;2024-02-14T00:58:51;5.05;;;3.80;;
30707;SDS011;17458;48.958;8.284;2024-02-14T01:01:35;11.38;;;4.05;;
30707;SDS011;17458;48.958;8.284;2024-02-14T01:04:19;9.52;;;4.28;;
30707;SDS011;17458;48.958;8.284;2024-02-14T01:07:03;8.82;;;4.20;;
30707;SDS011;17458;48.958;8.284;2024-02-14T01:09:48;3.80;;;3.42;;
30707;SDS011;17458;48.958;8.284;2024-02-14T01:12:31;4.43;;;3.85;;
30707;SDS011;17458;48.958;8.284;2024-02-14T01:15:15;3.95;;;3.55;;
30707;SDS011;17458;48.958;8.284;2024-02-14T01:17:59;4.43;;;3.67;;
30707;SDS011;17458;48.958;8.284;2024-02-14T01:20:43;5.50;;;3.45;;
30707;SDS011;17458;48.958;8.284;2024-02-14T01:23:27;5.43;;;3.70;;
30707;SDS011;17458;48.958;8.284;2024-02-14T01:26:11;6.13;;;3.83;;
30707;SDS011;17458;48.958;8.284;2024-02-14T01:28:55;4.63;;;3.95;;
30707;SDS011;17458;48.958;8.284;2024-02-14T01:31:39;4.63;;;4.22;;
30707;SDS011;17458;48.958;8.284;2024-02-14T01:34:23;9.40;;;3.90;;
30707;SDS011;17458;48.958;8.284;2024-02-14T01:37:07;3.75;;;3.38;;
30707;SDS011;17458;48.958;8.284;2024-02-14T01:39:53;4.05;;;3.65;;
30707;SDS011;17458;48.958;8.284;2024-02-14T01:42:37;5.20;;;3.55;;
30707;SDS011;17458;48.958;8.284;2024-02-14T01:45:21;6.53;;;4.15;;
30707;SDS011;17458;48.958;8.284;2024-02-14T01:48:06;5.63;;;3.70;;
30707;SDS011;17458;48.958;8.284;2024-02-14T01:50:51;8.57;;;3.90;;
30707;SDS011;17458;48.958;8.284;2024-02-14T01:53:35;5.03;;;3.53;;
30707;SDS011;17458;48.958;8.284;2024-02-14T01:56:22;3.90;;;3.47;;
30707;SDS011;17458;48.958;8.284;2024-02-14T01:59:07;4.88;;;3.58;;
30707;SDS011;17458;48.958;8.284;2024-02-14T02:01:53;5.47;;;3.63;;
30707;SDS011;17458;48.958;8.284;2024-02-14T02:04:37;3.20;;;2.95;;
30707;SDS011;17458;48.958;8.284;2024-02-14T02:07:21;9.13;;;4.03;;
30707;SDS011;17458;48.958;8.284;2024-02-14T02:10:05;4.95;;;3.70;;
30707;SDS011;17458;48.958;8.284;2024-02-14T02:12:49;5.28;;;3.55;;
30707;SDS011;17458;48.958;8.284;2024-02-14T02:15:34;4.18;;;3.45;;
30707;SDS011;17458;48.958;8.284;2024-02-14T02:18:19;3.42;;;3.13;;
30707;SDS011;17458;48.958;8.284;2024-02-14T02:21:03;8.02;;;3.67;;
30707;SDS011;17458;48.958;8.284;2024-02-14T02:23:50;4.53;;;3.63;;
30707;SDS011;17458;48.958;8.284;2024-02-14T02:26:34;6.32;;;3.13;;
30707;SDS011;17458;48.958;8.284;2024-02-14T02:29:18;6.57;;;3.80;;
30707;SDS011;17458;48.958;8.284;2024-02-14T02:32:03;6.25;;;3.45;;
30707;SDS011;17458;48.958;8.284;2024-02-14T02:34:50;3.53;;;3.28;;
30707;SDS011;17458;48.958;8.284;2024-02-14T02:37:34;4.63;;;3.85;;
30707;SDS011;17458;48.958;8.284;2024-02-14T02:40:19;7.30;;;4.25;;
30707;SDS011;17458;48.958;8.284;2024-02-14T02:43:04;4.90;;;3.35;;
30707;SDS011;17458;48.958;8.284;2024-02-14T02:45:49;5.15;;;3.30;;
30707;SDS011;17458;48.958;8.284;2024-02-14T02:48:33;6.75;;;2.83;;
30707;SDS011;17458;48.958;8.284;2024-02-14T02:51:17;6.43;;;3.22;;
30707;SDS011;17458;48.958;8.284;2024-02-14T02:54:01;3.40;;;3.10;;
30707;SDS011;17458;48.958;8.284;2024-02-14T02:56:46;4.88;;;2.83;;
30707;SDS011;17458;48.958;8.284;2024-02-14T02:59:30;8.65;;;3.55;;
30707;SDS011;17458;48.958;8.284;2024-02-14T03:02:14;5.35;;;3.92;;
30707;SDS011;17458;48.958;8.284;2024-02-14T03:04:59;4.38;;;3.00;;
30707;SDS011;17458;48.958;8.284;2024-02-14T03:07:44;8.48;;;3.55;;
30707;SDS011;17458;48.958;8.284;2024-02-14T03:10:28;4.55;;;3.10;;
30707;SDS011;17458;48.958;8.284;2024-02-14T03:13:15;8.40;;;3.45;;
30707;SDS011;17458;48.958;8.284;2024-02-14T03:16:00;5.35;;;3.35;;
30707;SDS011;17458;48.958;8.284;2024-02-14T03:18:44;3.42;;;3.03;;
30707;SDS011;17458;48.958;8.284;2024-02-14T03:21:28;4.15;;;2.90;;
30707;SDS011;17458;48.958;8.284;2024-02-14T03:24:12;5.05;;;3.13;;
30707;SDS011;17458;48.958;8.284;2024-02-14T03:26:56;4.28;;;2.63;;
30707;SDS011;17458;48.958;8.284;2024-02-14T03:29:40;6.53;;;3.10;;
30707;SDS011;17458;48.958;8.284;2024-02-14T03:32:24;4.88;;;2.30;;
30707;SDS011;17458;48.958;8.284;2024-02-14T03:35:10;9.48;;;2.92;;
30707;SDS011;17458;48.958;8.284;2024-02-14T03:37:54;8.93;;;3.22;;
30707;SDS011;17458;48.958;8.284;2024-02-14T03:40:38;4.78;;;3.05;;
30707;SDS011;17458;48.958;8.284;2024-02-14T03:43:22;2.65;;;2.45;;
30707;SDS011;17458;48.958;8.284;2024-02-14T03:46:07;5.43;;;2.60;;
30707;SDS011;17458;48.958;8.284;2024-02-14T03:48:51;2.50;;;2.28;;
30707;SDS011;17458;48.958;8.284;2024-02-14T03:51:35;3.25;;;2.15;;
30707;SDS011;17458;48.958;8.284;2024-02-14T03:54:19;3.45;;;2.45;;
30707;SDS011;17458;48.958;8.284;2024-02-14T03:57:07;1.85;;;1.73;;
30707;SDS011;17458;48.958;8.284;2024-02-14T03:59:52;6.57;;;2.80;;
30707;SDS011;17458;48.958;8.284;2024-02-14T04:02:36;5.10;;;2.75;;
30707;SDS011;17458;48.958;8.284;2024-02-14T04:05:20;3.40;;;2.42;;
30707;SDS011;17458;48.958;8.284;2024-02-14T04:08:04;2.17;;;1.88;;
30707;SDS011;17458;48.958;8.284;2024-02-14T04:10:48;9.50;;;1.92;;
30707;SDS011;17458;48.958;8.284;2024-02-14T04:13:33;2.63;;;2.42;;
30707;SDS011;17458;48.958;8.284;2024-02-14T04:16:20;7.40;;;2.10;;
30707;SDS011;17458;48.958;8.284;2024-02-14T04:19:07;4.95;;;1.83;;
30707;SDS011;17458;48.958;8.284;2024-02-14T04:21:52;6.00;;;2.10;;
30707;SDS011;17458;48.958;8.284;2024-02-14T04:24:36;2.35;;;2.10;;
30707;SDS011;17458;48.958;8.284;2024-02-14T04:27:20;3.75;;;1.80;;
30707;SDS011;17458;48.958;8.284;2024-02-14T04:30:04;3.63;;;2.15;;
30707;SDS011;17458;48.958;8.284;2024-02-14T04:32:49;3.53;;;1.85;;
30707;SDS011;17458;48.958;8.284;2024-02-14T04:35:33;3.63;;;2.30;;
30707;SDS011;17458;48.958;8.284;2024-02-14T04:38:17;6.70;;;1.83;;
30707;SDS011;17458;48.958;8.284;2024-02-14T04:41:03;3.50;;;1.90;;
30707;SDS011;17458;48.958;8.284;2024-02-14T04:43:47;6.75;;;1.95;;
30707;SDS011;17458;48.958;8.284;2024-02-14T04:46:32;2.55;;;1.70;;
30707;SDS011;17458;48.958;8.284;2024-02-14T04:49:19;8.02;;;2.03;;
30707;SDS011;17458;48.958;8.284;2024-02-14T04:52:03;2.28;;;1.95;;
30707;SDS011;17458;48.958;8.284;2024-02-14T04:54:48;2.75;;;1.67;;
30707;SDS011;17458;48.958;8.284;2024-02-14T04:57:32;1.77;;;1.67;;
30707;SDS011;17458;48.958;8.284;2024-02-14T05:00:18;3.28;;;2.00;;
30707;SDS011;17458;48.958;8.284;2024-02-14T05:03:03;1.70;;;1.60;;
30707;SDS011;17458;48.958;8.284;2024-02-14T05:05:47;3.08;;;2.13;;
30707;SDS011;17458;48.958;8.284;2024-02-14T05:08:31;8.50;;;2.35;;
30707;SDS011;17458;48.958;8.284;2024-02-14T05:11:15;3.70;;;2.13;;
30707;SDS011;17458;48.958;8.284;2024-02-14T05:13:59;4.38;;;2.05;;
30707;SDS011;17458;48.958;8.284;2024-02-14T05:16:45;2.70;;;2.10;;
30707;SDS011;17458;48.958;8.284;2024-02-14T05:19:30;3.05;;;1.77;;
30707;SDS011;17458;48.958;8.284;2024-02-14T05:22:14;5.20;;;1.95;;
30707;SDS011;17458;48.958;8.284;2024-02-14T05:24:57;6.82;;;1.95;;
30707;SDS011;17458;48.958;8.284;2024-02-14T05:27:41;2.22;;;1.70;;
30707;SDS011;17458;48.958;8.284;2024-02-14T05:30:26;4.28;;;1.85;;
30707;SDS011;17458;48.958;8.284;2024-02-14T05:33:10;10.05;;;2.03;;
30707;SDS011;17458;48.958;8.284;2024-02-14T05:35:55;3.30;;;1.83;;
30707;SDS011;17458;48.958;8.284;2024-02-14T05:38:39;7.13;;;2.10;;
30707;SDS011;17458;48.958;8.284;2024-02-14T05:41:23;5.22;;;2.10;;
30707;SDS011;17458;48.958;8.284;2024-02-14T05:44:08;5.07;;;2.00;;
30707;SDS011;17458;48.958;8.284;2024-02-14T05:46:52;2.03;;;1.70;;
30707;SDS011;17458;48.958;8.284;2024-02-14T05:49:38;2.25;;;2.03;;
30707;SDS011;17458;48.958;8.284;2024-02-14T05:52:25;2.75;;;1.75;;
30707;SDS011;17458;48.958;8.284;2024-02-14T05:55:09;6.05;;;2.13;;
30707;SDS011;17458;48.958;8.284;2024-02-14T05:57:53;5.18;;;2.53;;
30707;SDS011;17458;48.958;8.284;2024-02-14T06:00:38;2.10;;;1.67;;
30707;SDS011;17458;48.958;8.284;2024-02-14T06:03:22;10.82;;;1.95;;
30707;SDS011;17458;48.958;8.284;2024-02-14T06:06:06;4.07;;;1.85;;
30707;SDS011;17458;48.958;8.284;2024-02-14T06:08:50;4.32;;;2.15;;
30707;SDS011;17458;48.958;8.284;2024-02-14T06:11:34;3.90;;;2.17;;
30707;SDS011;17458;48.958;8.284;2024-02-14T06:14:18;2.65;;;2.35;;
30707;SDS011;17458;48.958;8.284;2024-02-14T06:17:02;4.38;;;1.95;;
30707;SDS011;17458;48.958;8.284;2024-02-14T06:19:46;3.20;;;2.35;;
30707;SDS011;17458;48.958;8.284;2024-02-14T06:22:30;3.60;;;2.03;;
30707;SDS011;17458;48.958;8.284;2024-02-14T06:25:14;4.03;;;2.25;;
30707;SDS011;17458;48.958;8.284;2024-02-14T06:27:59;3.55;;;2.30;;
30707;SDS011;17458;48.958;8.284;2024-02-14T06:30:43;4.82;;;3.10;;
30707;SDS011;17458;48.958;8.284;2024-02-14T06:33:27;3.40;;;2.17;;
30707;SDS011;17458;48.958;8.284;2024-02-14T06:36:12;5.20;;;2.25;;
30707;SDS011;17458;48.958;8.284;2024-02-14T06:38:56;3.97;;;2.33;;
30707;SDS011;17458;48.958;8.284;2024-02-14T06:41:40;7.55;;;2.38;;
30707;SDS011;17458;48.958;8.284;2024-02-14T06:44:24;4.45;;;1.83;;
30707;SDS011;17458;48.958;8.284;2024-02-14T06:47:08;4.30;;;2.45;;
30707;SDS011;17458;48.958;8.284;2024-02-14T06:49:52;4.45;;;2.00;;
30707;SDS011;17458;48.958;8.284;2024-02-14T06:52:36;3.63;;;1.75;;
30707;SDS011;17458;48.958;8.284;2024-02-14T06:55:20;2.10;;;1.90;;
30707;SDS011;17458;48.958;8.284;2024-02-14T06:58:04;1.50;;;1.40;;
30707;SDS011;17458;48.958;8.284;2024-02-14T07:00:48;2.22;;;2.03;;
30707;SDS011;17458;48.958;8.284;2024-02-14T07:03:33;3.42;;;1.98;;
30707;SDS011;17458;48.958;8.284;2024-02-14T07:06:17;7.10;;;2.65;;
30707;SDS011;17458;48.958;8.284;2024-02-14T07:09:01;2.67;;;2.05;;
30707;SDS011;17458;48.958;8.284;2024-02-14T07:11:45;3.15;;;1.92;;
30707;SDS011;17458;48.958;8.284;2024-02-14T07:14:29;2.03;;;1.85;;
30707;SDS011;17458;48.958;8.284;2024-02-14T07:17:13;4.32;;;2.22;;
30707;SDS011;17458;48.958;8.284;2024-02-14T07:19:57;3.63;;;2.58;;
30707;SDS011;17458;48.958;8.284;2024-02-14T07:22:41;2.55;;;2.05;;
30707;SDS011;17458;48.958;8.284;2024-02-14T07:25:25;3.72;;;1.98;;
30707;SDS011;17458;48.958;8.284;2024-02-14T07:28:10;2.60;;;2.17;;
30707;SDS011;17458;48.958;8.284;2024-02-14T07:30:54;5.90;;;2.53;;
30707;SDS011;17458;48.958;8.284;2024-02-14T07:33:38;2.13;;;1.92;;
30707;SDS011;17458;48.958;8.284;2024-02-14T07:36:22;3.83;;;2.17;;
30707;SDS011;17458;48.958;8.284;2024-02-14T07:39:06;6.07;;;2.47;;
30707;SDS011;17458;48.958;8.284;2024-02-14T07:41:50;2.58;;;2.00;;
30707;SDS011;17458;48.958;8.284;2024-02-14T07:44:34;3.63;;;2.35;;
30707;SDS011;17458;48.958;8.284;2024-02-14T07:47:18;14.60;;;2.42;;
30707;SDS011;17458;48.958;8.284;2024-02-14T07:50:02;5.78;;;2.55;;
30707;SDS011;17458;48.958;8.284;2024-02-14T07:52:47;3.25;;;2.15;;
30707;SDS011;17458;48.958;8.284;2024-02-14T07:55:31;2.33;;;2.13;;
30707;SDS011;17458;48.958;8.284;2024-02-14T07:58:14;4.60;;;2.28;;
30707;SDS011;17458;48.958;8.284;2024-02-14T08:00:58;5.22;;;2.15;;
30707;SDS011;17458;48.958;8.284;2024-02-14T08:03:42;5.63;;;2.17;;
30707;SDS011;17458;48.958;8.284;2024-02-14T08:06:26;4.43;;;2.08;;
30707;SDS011;17458;48.958;8.284;2024-02-14T08:09:10;2.10;;;1.90;;
30707;SDS011;17458;48.958;8.284;2024-02-14T08:11:54;5.32;;;2.20;;
30707;SDS011;17458;48.958;8.284;2024-02-14T08:14:38;3.38;;;2.10;;
30707;SDS011;17458;48.958;8.284;2024-02-14T08:17:22;4.57;;;2.00;;
30707;SDS011;17458;48.958;8.284;2024-02-14T08:20:06;9.00;;;2.15;;
30707;SDS011;17458;48.958;8.284;2024-02-14T08:22:51;4.45;;;2.08;;
30707;SDS011;17458;48.958;8.284;2024-02-14T08:25:35;3.30;;;2.05;;
30707;SDS011;17458;48.958;8.284;2024-02-14T08:28:19;3.50;;;2.50;;
30707;SDS011;17458;48.958;8.284;2024-02-14T08:31:09;3.92;;;2.58;;
30707;SDS011;17458;48.958;8.284;2024-02-14T08:33:54;4.63;;;2.30;;
30707;SDS011;17458;48.958;8.284;2024-02-14T08:36:38;7.10;;;1.92;;
30707;SDS011;17458;48.958;8.284;2024-02-14T08:39:24;4.00;;;1.95;;
30707;SDS011;17458;48.958;8.284;2024-02-14T08:42:10;2.03;;;1.85;;
30707;SDS011;17458;48.958;8.284;2024-02-14T08:44:54;2.78;;;1.90;;
30707;SDS011;17458;48.958;8.284;2024-02-14T08:47:38;3.15;;;1.95;;
30707;SDS011;17458;48.958;8.284;2024-02-14T08:50:21;3.08;;;2.30;;
30707;SDS011;17458;48.958;8.284;2024-02-14T08:53:05;6.70;;;2.50;;
30707;SDS011;17458;48.958;8.284;2024-02-14T08:55:50;7.75;;;2.13;;
30707;SDS011;17458;48.958;8.284;2024-02-14T08:58:35;5.97;;;2.35;;
30707;SDS011;17458;48.958;8.284;2024-02-14T09:01:19;5.45;;;2.15;;
30707;SDS011;17458;48.958;8.284;2024-02-14T09:04:05;6.55;;;2.58;;
30707;SDS011;17458;48.958;8.284;2024-02-14T09:06:49;4.50;;;2.33;;
30707;SDS011;17458;48.958;8.284;2024-02-14T09:09:33;6.35;;;2.10;;
30707;SDS011;17458;48.958;8.284;2024-02-14T09:12:17;2.25;;;1.85;;
30707;SDS011;17458;48.958;8.284;2024-02-14T09:15:01;3.33;;;2.22;;
30707;SDS011;17458;48.958;8.284;2024-02-14T09:17:48;2.85;;;2.00;;
30707;SDS011;17458;48.958;8.284;2024-02-14T09:20:32;5.07;;;1.90;;
30707;SDS011;17458;48.958;8.284;2024-02-14T09:23:16;2.97;;;2.10;;
30707;SDS011;17458;48.958;8.284;2024-02-14T09:26:06;5.00;;;1.70;;
30707;SDS011;17458;48.958;8.284;2024-02-14T09:28:50;2.67;;;2.28;;
30707;SDS011;17458;48.958;8.284;2024-02-14T09:31:35;3.00;;;2.40;;
30707;SDS011;17458;48.958;8.284;2024-02-14T09:34:19;2.50;;;1.90;;
30707;SDS011;17458;48.958;8.284;2024-02-14T09:37:04;2.75;;;2.25;;
30707;SDS011;17458;48.958;8.284;2024-02-14T09:39:50;5.30;;;2.20;;
30707;SDS011;17458;48.958;8.284;2024-02-14T09:42:43;2.42;;;2.22;;
30707;SDS011;17458;48.958;8.284;2024-02-14T09:45:29;5.85;;;2.25;;
30707;SDS011;17458;48.958;8.284;2024-02-14T09:48:17;2.65;;;1.95;;
30707;SDS011;17458;48.958;8.284;2024-02-14T09:51:03;3.42;;;2.35;;
30707;SDS011;17458;48.958;8.284;2024-02-14T09:53:48;2.88;;;2.25;;
30707;SDS011;17458;48.958;8.284;2024-02-14T09:56:33;2.40;;;1.90;;
30707;SDS011;17458;48.958;8.284;2024-02-14T09:59:17;3.60;;;2.20;;
30707;SDS011;17458;48.958;8.284;2024-02-14T10:02:02;2.50;;;1.83;;
30707;SDS011;17458;48.958;8.284;2024-02-14T10:04:45;5.07;;;2.30;;
30707;SDS011;17458;48.958;8.284;2024-02-14T10:07:29;4.57;;;1.80;;
30707;SDS011;17458;48.958;8.284;2024-02-14T10:10:14;4.20;;;2.30;;
30707;SDS011;17458;48.958;8.284;2024-02-14T10:12:58;4.40;;;2.38;;
30707;SDS011;17458;48.958;8.284;2024-02-14T10:15:42;6.85;;;2.30;;
30707;SDS011;17458;48.958;8.284;2024-02-14T10:18:26;9.07;;;1.88;;
30707;SDS011;17458;48.958;8.284;2024-02-14T10:21:14;3.22;;;2.20;;
30707;SDS011;17458;48.958;8.284;2024-02-14T10:24:03;1.50;;;1.40;;
30707;SDS011;17458;48.958;8.284;2024-02-14T10:26:47;2.30;;;2.10;;
30707;SDS011;17458;48.958;8.284;2024-02-14T10:29:32;3.78;;;1.83;;
30707;SDS011;17458;48.958;8.284;2024-02-14T10:32:16;5.70;;;2.03;;
30707;SDS011;17458;48.958;8.284;2024-02-14T10:35:00;1.80;;;1.70;;
30707;SDS011;17458;48.958;8.284;2024-02-14T10:37:45;2.17;;;1.85;;
30707;SDS011;17458;48.958;8.284;2024-02-14T10:40:35;4.72;;;2.30;;
30707;SDS011;17458;48.958;8.284;2024-02-14T10:43:21;4.60;;;2.55;;
30707;SDS011;17458;48.958;8.284;2024-02-14T10:46:08;8.02;;;3.22;;
30707;SDS011;17458;48.958;8.284;2024-02-14T10:48:57;4.18;;;2.40;;
30707;SDS011;17458;48.958;8.284;2024-02-14T10:51:46;3.28;;;2.33;;
30707;SDS011;17458;48.958;8.284;2024-02-14T10:54:33;4.60;;;2.17;;
30707;SDS011;17458;48.958;8.284;2024-02-14T10:57:19;6.63;;;2.00;;
30707;SDS011;17458;48.958;8.284;2024-02-14T11:00:06;5.43;;;2.85;;
30707;SDS011;17458;48.958;8.284;2024-02-14T11:02:57;3.58;;;2.10;;
30707;SDS011;17458;48.958;8.284;2024-02-14T11:05:53;2.42;;;1.73;;
30707;SDS011;17458;48.958;8.284;2024-02-14T11:09:03;6.57;;;2.10;;
30707;SDS011;17458;48.958;8.284;2024-02-14T11:11:58;4.55;;;2.33;;
30707;SDS011;17458;48.958;8.284;2024-02-14T11:14:44;3.17;;;1.80;;
30707;SDS011;17458;48.958;8.284;2024-02-14T11:17:28;9.77;;;2.00;;
30707;SDS011;17458;48.958;8.284;2024-02-14T11:20:16;2.90;;;1.98;;
30707;SDS011;17458;48.958;8.284;2024-02-14T11:23:06;3.45;;;1.88;;
30707;SDS011;17458;48.958;8.284;2024-02-14T11:26:01;5.18;;;2.00;;
30707;SDS011;17458;48.958;8.284;2024-02-14T11:28:46;4.60;;;1.90;;
30707;SDS011;17458;48.958;8.284;2024-02-14T11:31:32;5.35;;;1.77;;
30707;SDS011;17458;48.958;8.284;2024-02-14T11:34:19;2.72;;;1.90;;
30707;SDS011;17458;48.958;8.284;2024-02-14T11:37:03;4.32;;;2.40;;
30707;SDS011;17458;48.958;8.284;2024-02-14T11:39:49;5.88;;;1.77;;
30707;SDS011;17458;48.958;8.284;2024-02-14T11:42:33;3.63;;;2.20;;
30707;SDS011;17458;48.958;8.284;2024-02-14T11:45:16;1.77;;;1.33;;
30707;SDS011;17458;48.958;8.284;2024-02-14T11:48:00;4.45;;;1.60;;
30707;SDS011;17458;48.958;8.284;2024-02-14T11:50:45;2.45;;;1.88;;
30707;SDS011;17458;48.958;8.284;2024-02-14T11:53:29;1.90;;;1.60;;
30707;SDS011;17458;48.958;8.284;2024-02-14T11:56:14;1.52;;;1.42;;
30707;SDS011;17458;48.958;8.284;2024-02-14T11:59:02;1.70;;;1.40;;
30707;SDS011;17458;48.958;8.284;2024-02-14T12:01:50;2.10;;;1.55;;
30707;SDS011;17458;48.958;8.284;2024-02-14T12:04:35;3.10;;;1.90;;
30707;SDS011;17458;48.958;8.284;2024-02-14T12:07:20;4.70;;;1.40;;
30707;SDS011;17458;48.958;8.284;2024-02-14T12:10:05;1.52;;;1.30;;
30707;SDS011;17458;48.958;8.284;2024-02-14T12:12:50;1.58;;;1.25;;
30707;SDS011;17458;48.958;8.284;2024-02-14T12:15:38;1.40;;;1.30;;
30707;SDS011;17458;48.958;8.284;2024-02-14T12:18:25;3.55;;;1.23;;
30707;SDS011;17458;48.958;8.284;2024-02-14T12:21:09;3.08;;;1.33;;
30707;SDS011;17458;48.958;8.284;2024-02-14T12:23:59;2.10;;;1.30;;
30707;SDS011;17458;48.958;8.284;2024-02-14T12:26:43;2.03;;;1.65;;
30707;SDS011;17458;48.958;8.284;2024-02-14T12:29:27;1.65;;;1.50;;
30707;SDS011;17458;48.958;8.284;2024-02-14T12:32:11;1.65;;;1.55;;
30707;SDS011;17458;48.958;8.284;2024-02-14T12:34:55;1.20;;;1.10;;
30707;SDS011;17458;48.958;8.284;2024-02-14T12:37:40;4.85;;;1.50;;
30707;SDS011;17458;48.958;8.284;2024-02-14T12:40:24;4.40;;;1.63;;
30707;SDS011;17458;48.958;8.284;2024-02-14T12:43:08;2.92;;;1.90;;
30707;SDS011;17458;48.958;8.284;2024-02-14T12:45:57;1.77;;;1.40;;
30707;SDS011;17458;48.958;8.284;2024-02-14T12:48:42;2.33;;;1.23;;
30707;SDS011;17458;48.958;8.284;2024-02-14T12:51:26;1.40;;;1.30;;
30707;SDS011;17458;48.958;8.284;2024-02-14T12:54:12;1.65;;;1.20;;
30707;SDS011;17458;48.958;8.284;2024-02-14T12:56:58;1.50;;;1.40;;
30707;SDS011;17458;48.958;8.284;2024-02-14T12:59:42;1.30;;;1.20;;
30707;SDS011;17458;48.958;8.284;2024-02-14T13:02:26;3.38;;;1.33;;
30707;SDS011;17458;48.958;8.284;2024-02-14T13:05:12;7.78;;;1.17;;
30707;SDS011;17458;48.958;8.284;2024-02-14T13:07:55;1.42;;;1.23;;
30707;SDS011;17458;48.958;8.284;2024-02-14T13:10:40;2.15;;;1.20;;
30707;SDS011;17458;48.958;8.284;2024-02-14T13:13:25;1.10;;;1.10;;
30707;SDS011;17458;48.958;8.284;2024-02-14T13:16:09;1.30;;;1.20;;
30707;SDS011;17458;48.958;8.284;2024-02-14T13:18:53;1.55;;;1.45;;
30707;SDS011;17458;48.958;8.284;2024-02-14T13:21:37;3.42;;;1.30;;
30707;SDS011;17458;48.958;8.284;2024-02-14T13:24:21;2.30;;;1.50;;
30707;SDS011;17458;48.958;8.284;2024-02-14T13:27:04;4.10;;;2.45;;
30707;SDS011;17458;48.958;8.284;2024-02-14T13:29:49;1.90;;;1.52;;
30707;SDS011;17458;48.958;8.284;2024-02-14T13:32:33;2.92;;;1.20;;
30707;SDS011;17458;48.958;8.284;2024-02-14T13:35:17;4.38;;;1.38;;
30707;SDS011;17458;48.958;8.284;2024-02-14T13:38:01;1.98;;;1.27;;
30707;SDS011;17458;48.958;8.284;2024-02-14T13:40:47;2.15;;;1.40;;
30707;SDS011;17458;48.958;8.284;2024-02-14T13:43:30;1.40;;;1.30;;
30707;SDS011;17458;48.958;8.284;2024-02-14T13:46:14;2.78;;;1.45;;
30707;SDS011;17458;48.958;8.284;2024-02-14T13:48:58;1.90;;;1.30;;
30707;SDS011;17458;48.958;8.284;2024-02-14T13:51:42;0.95;;;0.95;;
30707;SDS011;17458;48.958;8.284;2024-02-14T13:54:26;2.50;;;1.55;;
30707;SDS011;17458;48.958;8.284;2024-02-14T13:57:10;4.75;;;3.00;;
30707;SDS011;17458;48.958;8.284;2024-02-14T13:59:55;2.72;;;2.13;;
30707;SDS011;17458;48.958;8.284;2024-02-14T14:02:39;1.70;;;1.38;;
30707;SDS011;17458;48.958;8.284;2024-02-14T14:05:26;2.90;;;1.30;;
30707;SDS011;17458;48.958;8.284;2024-02-14T14:08:10;1.58;;;1.35;;
30707;SDS011;17458;48.958;8.284;2024-02-14T14:10:54;2.63;;;1.65;;
30707;SDS011;17458;48.958;8.284;2024-02-14T14:13:38;1.58;;;1.42;;
30707;SDS011;17458;48.958;8.284;2024-02-14T14:16:22;3.03;;;1.63;;
30707;SDS011;17458;48.958;8.284;2024-02-14T14:19:06;7.10;;;2.20;;
30707;SDS011;17458;48.958;8.284;2024-02-14T14:21:50;5.00;;;3.13;;
30707;SDS011;17458;48.958;8.284;2024-02-14T14:24:34;6.70;;;3.03;;
30707;SDS011;17458;48.958;8.284;2024-02-14T14:27:18;2.88;;;2.00;;
30707;SDS011;17458;48.958;8.284;2024-02-14T14:30:05;1.83;;;1.73;;
30707;SDS011;17458;48.958;8.284;2024-02-14T14:32:50;1.63;;;1.52;;
30707;SDS011;17458;48.958;8.284;2024-02-14T14:35:34;4.15;;;2.13;;
30707;SDS011;17458;48.958;8.284;2024-02-14T14:38:19;7.32;;;2.60;;
30707;SDS011;17458;48.958;8.284;2024-02-14T14:41:04;4.70;;;2.85;;
30707;SDS011;17458;48.958;8.284;2024-02-14T14:43:48;7.88;;;3.45;;
30707;SDS011;17458;48.958;8.284;2024-02-14T14:46:32;3.25;;;2.10;;
30707;SDS011;17458;48.958;8.284;2024-02-14T14:49:18;2.50;;;1.58;;
30707;SDS011;17458;48.958;8.284;2024-02-14T14:52:03;2.05;;;1.85;;
30707;SDS011;17458;48.958;8.284;2024-02-14T14:54:48;1.38;;;1.27;;
30707;SDS011;17458;48.958;8.284;2024-02-14T14:57:32;1.50;;;1.40;;
30707;SDS011;17458;48.958;8.284;2024-02-14T15:00:16;2.33;;;1.40;;
30707;SDS011;17458;48.958;8.284;2024-02-14T15:03:00;1.23;;;1.00;;
30707;SDS011;17458;48.958;8.284;2024-02-14T15:05:44;2.25;;;1.40;;
30707;SDS011;17458;48.958;8.284;2024-02-14T15:08:28;1.38;;;1.15;;
30707;SDS011;17458;48.958;8.284;2024-02-14T15:11:12;3.45;;;1.50;;
30707;SDS011;17458;48.958;8.284;2024-02-14T15:13:58;1.48;;;1.30;;
30707;SDS011;17458;48.958;8.284;2024-02-14T15:16:42;1.70;;;1.48;;
30707;SDS011;17458;48.958;8.284;2024-02-14T15:19:26;4.80;;;1.27;;
30707;SDS011;17458;48.958;8.284;2024-02-14T15:22:10;2.53;;;1.40;;
30707;SDS011;17458;48.958;8.284;2024-02-14T15:24:54;2.20;;;1.58;;
30707;SDS011;17458;48.958;8.284;2024-02-14T15:27:38;3.85;;;1.48;;
30707;SDS011;17458;48.958;8.284;2024-02-14T15:30:28;1.42;;;1.25;;
30707;SDS011;17458;48.958;8.284;2024-02-14T15:33:30;1.98;;;1.40;;
30707;SDS011;17458;48.958;8.284;2024-02-14T15:36:14;2.75;;;1.58;;
30707;SDS011;17458;48.958;8.284;2024-02-14T15:38:59;4.60;;;1.33;;
30707;SDS011;17458;48.958;8.284;2024-02-14T15:41:43;2.05;;;1.85;;
30707;SDS011;17458;48.958;8.284;2024-02-14T15:44:27;7.25;;;4.07;;
30707;SDS011;17458;48.958;8.284;2024-02-14T15:47:12;4.78;;;2.47;;
30707;SDS011;17458;48.958;8.284;2024-02-14T15:49:56;3.95;;;2.55;;
30707;SDS011;17458;48.958;8.284;2024-02-14T15:52:39;11.27;;;6.03;;
30707;SDS011;17458;48.958;8.284;2024-02-14T15:55:24;11.52;;;6.35;;
30707;SDS011;17458;48.958;8.284;2024-02-14T15:58:09;9.13;;;4.55;;
30707;SDS011;17458;48.958;8.284;2024-02-14T16:00:59;4.90;;;2.45;;
30707;SDS011;17458;48.958;8.284;2024-02-14T16:03:43;3.60;;;2.30;;
30707;SDS011;17458;48.958;8.284;2024-02-14T16:06:26;2.50;;;1.88;;
30707;SDS011;17458;48.958;8.284;2024-02-14T16:09:10;2.33;;;1.70;;
30707;SDS011;17458;48.958;8.284;2024-02-14T16:11:54;2.33;;;2.05;;
30707;SDS011;17458;48.958;8.284;2024-02-14T16:14:38;4.60;;;2.22;;
30707;SDS011;17458;48.958;8.284;2024-02-14T16:17:26;9.43;;;2.50;;
30707;SDS011;17458;48.958;8.284;2024-02-14T16:20:11;6.50;;;2.90;;
30707;SDS011;17458;48.958;8.284;2024-02-14T16:22:56;3.47;;;1.77;;
30707;SDS011;17458;48.958;8.284;2024-02-14T16:25:41;2.30;;;1.90;;
30707;SDS011;17458;48.958;8.284;2024-02-14T16:28:24;2.30;;;2.10;;
30707;SDS011;17458;48.958;8.284;2024-02-14T16:31:08;3.83;;;1.67;;
30707;SDS011;17458;48.958;8.284;2024-02-14T16:33:53;1.80;;;1.70;;